Nellis Air Force Base Las Vegas US
ICAO: KLSV
IATA: LSV
Category: Medium
Scheduled Services: No

Elevation: 1870 ft
TransAlt. 18000 ft.

Airport Communications:
ALCE AMC:25.735
APP:118.125
ATIS:27.01
CLNC DEL:120.9
DEP:135.1
GND:121.8
SOF:30.56
PMSV METRO:32.39
ACC COMD POST:32
PTD:139.3
TWR:132.55

KLSV Zoom In..

If you have problems with the map follow the link
https://www.worldairports.se/pages/airport.php?
ICAO=KLSV

Runways:

(A) RW 03L length 10120 ft width 200 ft
---- / hdg 27

(B) RW 03R length 10051 ft width 150 ft
---- / hdg 27

(C) RW 21L length 10051 ft width 150 ft
ILS 109.10 / hdg 207

(D) RW 21R length 10120 ft width 200 ft
---- / hdg 207

Location; KLSV
Day. 14 / Time. 10.58 Zulu
* Altimeter: 30.43
* Temperature: 06° c. 42.8°f.
* Wind from: 280° Speed 06 kn.
Dewpoint: -17° c.
Visibility: 10 Statute Miles.
Clouds: Clear (automated report).

KLSV 141058Z 28006KT 10SM CLR 06/M17 A3043 RMK AO2A SLP302 ALSTG/SLP ESTMD T00621167 $


Wind From 280°
Speed 06 kn.

 
 
jpsmedia.com for Web Design worldairports.se 2018   terms of use